createdAt,value
2022-11-10T00:02:45.566Z,9.47
2022-11-10T00:05:38.354Z,9.77
2022-11-10T00:08:28.799Z,9.37
2022-11-10T00:11:19.320Z,10.00
2022-11-10T00:14:30.165Z,8.43
2022-11-10T00:17:20.453Z,9.33
2022-11-10T00:20:11.505Z,9.97
2022-11-10T00:23:01.763Z,9.00
2022-11-10T00:25:52.255Z,9.77
2022-11-10T00:28:43.235Z,8.93
2022-11-10T00:31:33.704Z,8.83
2022-11-10T00:34:25.118Z,8.90
2022-11-10T00:37:15.467Z,10.23
2022-11-10T00:40:06.404Z,9.13
2022-11-10T00:42:56.930Z,8.53
2022-11-10T00:45:47.329Z,9.33
2022-11-10T00:48:37.875Z,8.90
2022-11-10T00:51:29.657Z,9.57
2022-11-10T00:54:19.954Z,9.33
2022-11-10T00:57:10.392Z,9.67
2022-11-10T01:00:00.868Z,8.83
2022-11-10T01:02:51.194Z,9.60
2022-11-10T01:05:42.283Z,9.77
2022-11-10T01:08:32.789Z,7.93
2022-11-10T01:11:27.981Z,9.43
2022-11-10T01:14:18.202Z,8.53
2022-11-10T01:17:08.659Z,9.10
2022-11-10T01:19:59.232Z,9.17
2022-11-10T01:22:49.751Z,9.30
2022-11-10T01:25:40.189Z,9.13
2022-11-10T01:28:31.951Z,9.10
2022-11-10T01:31:22.709Z,9.17
2022-11-10T01:34:13.059Z,9.10
2022-11-10T01:37:03.110Z,8.57
2022-11-10T01:39:53.742Z,8.40
2022-11-10T01:42:54.346Z,9.53
2022-11-10T01:46:06.360Z,8.97
2022-11-10T01:49:00.736Z,8.23
2022-11-10T01:51:58.297Z,8.87
2022-11-10T01:54:49.735Z,8.40
2022-11-10T01:57:41.541Z,9.53
2022-11-10T02:00:31.753Z,9.00
2022-11-10T02:03:47.343Z,9.33
2022-11-10T02:06:40.545Z,9.13
2022-11-10T02:09:30.968Z,9.03
2022-11-10T02:12:36.980Z,9.73
2022-11-10T02:15:27.695Z,9.73
2022-11-10T02:18:18.024Z,9.90
2022-11-10T02:21:09.460Z,10.10
2022-11-10T02:23:59.693Z,10.23
2022-11-10T02:26:54.372Z,10.13
2022-11-10T02:29:44.368Z,9.60
2022-11-10T02:32:34.742Z,9.40
2022-11-10T02:35:25.176Z,9.93
2022-11-10T02:38:15.700Z,10.07
2022-11-10T02:41:06.292Z,11.13
2022-11-10T02:43:58.388Z,9.57
2022-11-10T02:46:48.850Z,10.17
2022-11-10T02:49:39.293Z,10.47
2022-11-10T02:52:29.616Z,10.50
2022-11-10T02:55:19.898Z,9.97
2022-11-10T02:58:10.272Z,10.27
2022-11-10T03:01:04.389Z,10.70
2022-11-10T03:03:54.801Z,10.20
2022-11-10T03:06:45.091Z,10.77
2022-11-10T03:09:35.695Z,10.93
2022-11-10T03:12:25.733Z,11.67
2022-11-10T03:15:16.196Z,11.30
2022-11-10T03:18:06.751Z,10.87
2022-11-10T03:20:56.947Z,10.90
2022-11-10T03:23:47.616Z,11.50
2022-11-10T03:26:38.173Z,11.10
2022-11-10T03:29:28.630Z,10.90
2022-11-10T03:32:18.943Z,11.70
2022-11-10T03:35:10.044Z,11.73
2022-11-10T03:38:00.133Z,11.47
2022-11-10T03:41:17.428Z,11.67
2022-11-10T03:44:01.443Z,10.73
2022-11-10T03:46:52.020Z,12.90
2022-11-10T03:49:42.724Z,11.97
2022-11-10T03:52:33.747Z,11.97
2022-11-10T03:55:23.893Z,11.63
2022-11-10T03:58:14.301Z,12.10
2022-11-10T04:01:05.072Z,11.87
2022-11-10T04:03:56.568Z,12.50
2022-11-10T04:07:05.497Z,12.63
2022-11-10T04:09:55.702Z,12.73
2022-11-10T04:13:04.729Z,13.43
2022-11-10T04:15:55.213Z,12.57
2022-11-10T04:18:45.708Z,12.23
2022-11-10T04:21:36.254Z,11.97
2022-11-10T04:24:26.739Z,12.73
2022-11-10T04:27:17.257Z,11.80
2022-11-10T04:30:08.956Z,13.00
2022-11-10T04:32:59.119Z,12.63
2022-11-10T04:35:49.463Z,12.97
2022-11-10T04:38:40.416Z,13.07
2022-11-10T04:41:31.699Z,13.00
2022-11-10T04:44:22.070Z,12.40
2022-11-10T04:47:12.425Z,12.13
2022-11-10T04:50:03.018Z,11.00
2022-11-10T04:52:53.419Z,12.40
2022-11-10T04:55:45.096Z,12.23
2022-11-10T04:58:35.546Z,12.47
2022-11-10T05:01:27.783Z,11.80
2022-11-10T05:04:18.542Z,12.00
2022-11-10T05:07:09.065Z,12.83
2022-11-10T05:09:59.585Z,12.97
2022-11-10T05:12:52.540Z,12.40
2022-11-10T05:15:42.927Z,13.07
2022-11-10T05:18:33.505Z,11.67
2022-11-10T05:21:23.906Z,12.43
2022-11-10T05:24:14.224Z,12.13
2022-11-10T05:27:04.876Z,11.63
2022-11-10T05:29:55.486Z,11.10
2022-11-10T05:32:45.924Z,10.73
2022-11-10T05:35:37.187Z,10.77
2022-11-10T05:38:27.991Z,12.60
2022-11-10T05:41:18.168Z,11.80
2022-11-10T05:44:08.642Z,12.90
2022-11-10T05:46:59.195Z,11.90
2022-11-10T05:49:49.753Z,11.97
2022-11-10T05:52:50.038Z,9.50
2022-11-10T05:55:40.831Z,12.03
2022-11-10T05:58:31.114Z,10.17
2022-11-10T06:01:21.517Z,12.60
2022-11-10T06:04:11.994Z,11.47
2022-11-10T06:07:02.575Z,9.80
2022-11-10T06:09:52.909Z,10.60
2022-11-10T06:12:43.367Z,11.00
2022-11-10T06:15:33.819Z,10.03
2022-11-10T06:18:24.177Z,9.63
2022-11-10T06:21:14.607Z,10.40
2022-11-10T06:24:05.186Z,9.83
2022-11-10T06:26:55.544Z,11.97
2022-11-10T06:29:45.868Z,11.40
2022-11-10T06:32:36.357Z,11.13
2022-11-10T06:35:27.846Z,10.93
2022-11-10T06:38:18.313Z,12.13
2022-11-10T06:41:09.544Z,12.73
2022-11-10T06:44:00.270Z,12.93
2022-11-10T06:46:51.460Z,11.27
2022-11-10T06:49:41.763Z,13.00
2022-11-10T06:52:32.320Z,11.17
2022-11-10T06:55:22.596Z,12.10
2022-11-10T06:58:12.968Z,9.83
2022-11-10T07:01:03.500Z,10.03
2022-11-10T07:04:18.107Z,11.13
2022-11-10T07:07:04.358Z,10.23
2022-11-10T07:09:54.709Z,9.13
2022-11-10T07:12:44.991Z,8.87
2022-11-10T07:15:35.989Z,8.53
2022-11-10T07:18:26.267Z,7.47
2022-11-10T07:21:16.736Z,7.43
2022-11-10T07:24:07.618Z,7.60
2022-11-10T07:26:58.240Z,9.50
2022-11-10T07:29:48.767Z,8.77
2022-11-10T07:32:39.243Z,9.10
2022-11-10T07:35:30.368Z,8.00
2022-11-10T07:38:20.633Z,9.80
2022-11-10T07:41:11.030Z,10.57
2022-11-10T07:44:01.439Z,9.20
2022-11-10T07:46:51.852Z,9.00
2022-11-10T07:49:42.335Z,9.67
2022-11-10T07:52:32.764Z,8.90
2022-11-10T07:55:23.255Z,7.77
2022-11-10T07:58:17.408Z,8.90
2022-11-10T08:01:08.087Z,8.37
2022-11-10T08:03:58.540Z,7.23
2022-11-10T08:06:49.422Z,7.93
2022-11-10T08:09:39.761Z,6.70
2022-11-10T08:12:33.673Z,8.03
2022-11-10T08:15:25.705Z,7.93
2022-11-10T08:18:23.498Z,7.23
2022-11-10T08:21:14.088Z,6.97
2022-11-10T08:24:04.716Z,6.20
2022-11-10T08:26:55.759Z,5.83
2022-11-10T08:29:46.290Z,6.07
2022-11-10T08:32:36.706Z,6.03
2022-11-10T08:35:29.781Z,6.63
2022-11-10T08:38:22.197Z,6.87
2022-11-10T08:41:12.723Z,6.93
2022-11-10T08:44:03.107Z,6.30
2022-11-10T08:46:53.713Z,7.37
2022-11-10T08:49:44.369Z,6.30
2022-11-10T08:52:34.760Z,7.53
2022-11-10T08:55:25.199Z,8.37
2022-11-10T08:58:19.190Z,8.90
2022-11-10T09:01:11.550Z,8.17
2022-11-10T09:04:01.582Z,8.90
2022-11-10T09:06:52.070Z,8.57
2022-11-10T09:09:42.515Z,9.43
2022-11-10T09:12:32.998Z,9.73
2022-11-10T09:15:23.418Z,9.77
2022-11-10T09:18:15.268Z,8.77
2022-11-10T09:21:11.688Z,8.67
2022-11-10T09:24:02.205Z,7.37
2022-11-10T09:26:52.968Z,7.40
2022-11-10T09:29:43.205Z,7.47
2022-11-10T09:32:34.349Z,7.33
2022-11-10T09:35:25.591Z,7.73
2022-11-10T09:38:15.855Z,7.40
2022-11-10T09:41:09.085Z,6.97
2022-11-10T09:44:09.469Z,6.00
2022-11-10T09:47:35.279Z,4.47
2022-11-10T09:50:41.245Z,2.00
2022-11-10T09:53:44.787Z,1.70
2022-11-10T09:56:37.419Z,1.63
2022-11-10T09:59:30.081Z,1.80
2022-11-10T10:02:36.235Z,1.77
2022-11-10T10:05:46.371Z,1.60
2022-11-10T10:08:42.488Z,1.70
2022-11-10T10:11:46.776Z,1.40
2022-11-10T10:15:12.809Z,1.20
2022-11-10T10:18:23.712Z,1.60
2022-11-10T10:21:41.538Z,2.00
2022-11-10T10:24:33.410Z,2.30
2022-11-10T10:27:26.450Z,1.67
2022-11-10T10:30:20.625Z,1.60
2022-11-10T10:33:20.147Z,1.27
2022-11-10T10:36:28.025Z,1.47
2022-11-10T10:39:37.144Z,2.50
2022-11-10T10:42:32.942Z,2.10
2022-11-10T10:45:29.216Z,1.73
2022-11-10T10:48:28.445Z,1.50
2022-11-10T10:51:29.894Z,1.53
2022-11-10T10:54:24.816Z,1.33
2022-11-10T10:57:28.244Z,1.30
2022-11-10T11:00:22.608Z,1.67
2022-11-10T11:03:45.096Z,1.50
2022-11-10T11:06:36.888Z,1.40
2022-11-10T11:09:41.046Z,1.17
2022-11-10T11:12:32.909Z,1.47
2022-11-10T11:15:26.775Z,1.27
2022-11-10T11:18:20.500Z,1.43
2022-11-10T11:21:35.066Z,1.73
2022-11-10T11:24:43.506Z,1.37
2022-11-10T11:27:43.183Z,1.60
2022-11-10T11:31:05.926Z,1.33
2022-11-10T11:34:14.449Z,1.30
2022-11-10T11:37:37.228Z,1.40
2022-11-10T11:40:46.532Z,1.20
2022-11-10T11:43:55.492Z,0.90
2022-11-10T11:47:00.882Z,0.90
2022-11-10T11:49:51.132Z,0.70
2022-11-10T11:52:53.728Z,1.27
2022-11-10T11:56:04.213Z,1.03
2022-11-10T11:58:57.616Z,0.77
2022-11-10T12:02:09.299Z,0.90
2022-11-10T12:05:18.404Z,0.67
2022-11-10T12:08:31.261Z,1.53
2022-11-10T12:11:41.900Z,0.80
2022-11-10T12:14:53.939Z,0.90
2022-11-10T12:18:19.758Z,0.73
2022-11-10T12:21:23.389Z,0.70
2022-11-10T12:24:51.710Z,0.90
2022-11-10T12:27:49.183Z,1.40
2022-11-10T12:30:41.805Z,1.17
2022-11-10T12:33:38.495Z,1.00
2022-11-10T12:36:31.385Z,1.10
2022-11-10T12:39:29.627Z,0.90
2022-11-10T12:42:24.563Z,0.87
2022-11-10T12:45:23.628Z,1.13
2022-11-10T12:48:16.024Z,0.80
2022-11-10T12:51:44.237Z,1.20
2022-11-10T12:54:35.681Z,0.60
2022-11-10T12:57:28.452Z,0.70
2022-11-10T13:00:28.528Z,0.80
2022-11-10T13:03:26.688Z,0.63
2022-11-10T13:06:30.054Z,0.50
2022-11-10T13:09:41.157Z,0.80
2022-11-10T13:12:31.723Z,0.80
2022-11-10T13:15:37.926Z,0.80
2022-11-10T13:18:31.139Z,0.90
2022-11-10T13:22:04.796Z,0.90
2022-11-10T13:25:33.487Z,0.70
2022-11-10T13:28:48.711Z,1.50
2022-11-10T13:31:40.511Z,1.13
2022-11-10T13:34:35.981Z,1.00
2022-11-10T13:37:29.596Z,0.83
2022-11-10T13:40:26.001Z,1.20
2022-11-10T13:43:22.367Z,1.07
2022-11-10T13:46:13.607Z,1.27
2022-11-10T13:49:27.040Z,1.20
2022-11-10T13:52:21.788Z,1.00
2022-11-10T13:55:21.491Z,1.00
2022-11-10T13:58:24.839Z,0.83
2022-11-10T14:01:18.740Z,0.87
2022-11-10T14:04:33.882Z,1.60
2022-11-10T14:07:27.889Z,0.90
2022-11-10T14:10:24.008Z,1.10
2022-11-10T14:13:23.441Z,0.93
2022-11-10T14:16:24.024Z,1.00
2022-11-10T14:19:14.500Z,1.00
2022-11-10T14:22:21.876Z,0.77
2022-11-10T14:25:25.905Z,0.93
2022-11-10T14:28:34.822Z,0.57
2022-11-10T14:31:26.394Z,1.00
2022-11-10T14:34:18.128Z,0.70
2022-11-10T14:37:16.707Z,1.07
2022-11-10T14:40:17.161Z,1.10
2022-11-10T14:43:32.371Z,1.00
2022-11-10T14:46:24.753Z,1.03
2022-11-10T14:49:21.995Z,0.80
2022-11-10T14:52:13.735Z,0.87
2022-11-10T14:55:14.813Z,5.37
2022-11-10T14:58:13.472Z,3.70
2022-11-10T15:01:05.676Z,2.20
2022-11-10T15:03:57.405Z,1.27
2022-11-10T15:06:48.907Z,1.70
2022-11-10T15:09:39.003Z,1.33
2022-11-10T15:12:29.342Z,1.33
2022-11-10T15:15:22.289Z,1.20
2022-11-10T15:18:41.813Z,1.17
2022-11-10T15:21:34.066Z,1.77
2022-11-10T15:24:25.942Z,1.60
2022-11-10T15:27:28.443Z,1.40
2022-11-10T15:30:23.403Z,1.20
2022-11-10T15:33:16.807Z,1.63
2022-11-10T15:36:27.822Z,1.90
2022-11-10T15:39:23.427Z,1.53
2022-11-10T15:42:16.865Z,1.40
2022-11-10T15:45:07.812Z,2.10
2022-11-10T15:47:58.394Z,1.50
2022-11-10T15:50:52.528Z,2.40
2022-11-10T15:53:45.545Z,4.97
2022-11-10T15:56:35.753Z,5.47
2022-11-10T15:59:26.385Z,4.83
2022-11-10T16:02:25.061Z,4.30
2022-11-10T16:05:15.194Z,5.43
2022-11-10T16:08:12.627Z,5.23
2022-11-10T16:11:02.827Z,4.10
2022-11-10T16:13:54.547Z,4.70
2022-11-10T16:16:45.120Z,4.90
2022-11-10T16:19:35.224Z,6.13
2022-11-10T16:22:25.610Z,6.63
2022-11-10T16:25:22.594Z,7.03
2022-11-10T16:28:20.813Z,7.33
2022-11-10T16:31:11.808Z,7.43
2022-11-10T16:34:02.296Z,7.70
2022-11-10T16:36:52.775Z,7.90
2022-11-10T16:39:43.788Z,9.10
2022-11-10T16:42:34.235Z,8.50
2022-11-10T16:45:30.084Z,8.30
2022-11-10T16:48:23.545Z,7.50
2022-11-10T16:51:14.316Z,8.03
2022-11-10T16:54:04.668Z,7.20
2022-11-10T16:56:55.023Z,7.77
2022-11-10T16:59:45.772Z,8.17
2022-11-10T17:02:37.420Z,7.37
2022-11-10T17:05:28.189Z,7.80
2022-11-10T17:08:26.717Z,7.53
2022-11-10T17:11:17.332Z,7.47
2022-11-10T17:14:11.082Z,6.53
2022-11-10T17:17:02.170Z,5.87
2022-11-10T17:19:52.693Z,6.50
2022-11-10T17:22:42.992Z,5.97
2022-11-10T17:25:36.058Z,6.77
2022-11-10T17:28:26.132Z,6.23
2022-11-10T17:31:16.389Z,6.13
2022-11-10T17:34:06.912Z,6.07
2022-11-10T17:36:57.255Z,7.00
2022-11-10T17:39:47.808Z,7.03
2022-11-10T17:42:39.106Z,6.80
2022-11-10T17:45:30.178Z,8.07
2022-11-10T17:48:21.279Z,9.17
2022-11-10T17:51:19.759Z,9.67
2022-11-10T17:54:15.046Z,8.90
2022-11-10T17:57:06.200Z,13.33
2022-11-10T17:59:56.762Z,13.60
2022-11-10T18:02:51.187Z,9.37
2022-11-10T18:05:46.378Z,8.63
2022-11-10T18:08:37.600Z,7.80
2022-11-10T18:11:27.726Z,7.03
2022-11-10T18:14:18.239Z,7.63
2022-11-10T18:17:09.065Z,5.20
2022-11-10T18:19:59.471Z,5.80
2022-11-10T18:22:49.960Z,5.73
2022-11-10T18:25:41.840Z,5.53
2022-11-10T18:28:33.479Z,6.70
2022-11-10T18:31:23.794Z,5.73
2022-11-10T18:34:14.229Z,8.00
2022-11-10T18:37:04.741Z,7.97
2022-11-10T18:39:55.188Z,6.67
2022-11-10T18:42:45.709Z,8.03
2022-11-10T18:45:36.828Z,8.63
2022-11-10T18:48:31.055Z,9.47
2022-11-10T18:51:23.827Z,9.47
2022-11-10T18:54:14.530Z,9.80
2022-11-10T18:57:04.813Z,9.83
2022-11-10T18:59:55.305Z,9.33
2022-11-10T19:02:45.857Z,9.30
2022-11-10T19:05:38.554Z,8.47
2022-11-10T19:08:29.802Z,8.87
2022-11-10T19:11:20.254Z,8.13
2022-11-10T19:14:10.535Z,9.27
2022-11-10T19:17:00.900Z,10.07
2022-11-10T19:19:56.121Z,9.70
2022-11-10T19:22:46.979Z,8.73
2022-11-10T19:25:37.365Z,8.43
2022-11-10T19:28:28.672Z,8.93
2022-11-10T19:31:22.777Z,8.50
2022-11-10T19:34:13.126Z,9.37
2022-11-10T19:37:04.145Z,8.80
2022-11-10T19:39:54.240Z,8.93
2022-11-10T19:42:44.558Z,8.90
2022-11-10T19:45:35.144Z,7.63
2022-11-10T19:48:25.182Z,9.50
2022-11-10T19:51:17.412Z,8.30
2022-11-10T19:54:09.176Z,11.60
2022-11-10T19:56:59.434Z,14.03
2022-11-10T19:59:50.109Z,13.63
2022-11-10T20:02:45.395Z,11.43
2022-11-10T20:05:36.206Z,9.47
2022-11-10T20:08:27.260Z,8.40
2022-11-10T20:11:23.753Z,10.27
2022-11-10T20:14:13.971Z,8.40
2022-11-10T20:17:04.578Z,7.13
2022-11-10T20:19:55.086Z,6.60
2022-11-10T20:22:45.603Z,5.73
2022-11-10T20:25:36.091Z,5.90
2022-11-10T20:28:26.776Z,6.23
2022-11-10T20:31:21.289Z,4.90
2022-11-10T20:34:11.737Z,5.67
2022-11-10T20:37:02.452Z,6.73
2022-11-10T20:39:52.693Z,5.47
2022-11-10T20:42:43.095Z,5.03
2022-11-10T20:45:33.581Z,7.50
2022-11-10T20:48:23.905Z,5.93
2022-11-10T20:51:19.505Z,7.00
2022-11-10T20:54:09.827Z,6.80
2022-11-10T20:56:59.995Z,6.60
2022-11-10T20:59:50.403Z,6.23
2022-11-10T21:02:41.047Z,6.23
2022-11-10T21:05:31.217Z,6.40
2022-11-10T21:08:22.201Z,7.73
2022-11-10T21:11:32.904Z,7.90
2022-11-10T21:14:23.475Z,9.97
2022-11-10T21:17:14.056Z,9.40
2022-11-10T21:20:04.871Z,9.73
2022-11-10T21:23:02.104Z,9.50
2022-11-10T21:25:54.371Z,8.00
2022-11-10T21:28:44.961Z,7.70
2022-11-10T21:31:35.505Z,7.87
2022-11-10T21:34:25.968Z,6.43
2022-11-10T21:37:16.201Z,7.13
2022-11-10T21:40:07.071Z,7.40
2022-11-10T21:42:58.346Z,4.43
2022-11-10T21:45:48.656Z,5.10
2022-11-10T21:48:39.167Z,4.90
2022-11-10T21:51:29.872Z,4.90
2022-11-10T21:54:20.651Z,5.13
2022-11-10T21:57:11.006Z,5.53
2022-11-10T22:00:01.711Z,5.50
2022-11-10T22:02:57.835Z,5.43
2022-11-10T22:05:48.317Z,7.20
2022-11-10T22:08:39.287Z,6.53
2022-11-10T22:11:48.043Z,5.70
2022-11-10T22:14:57.647Z,6.53
2022-11-10T22:18:06.659Z,7.13
2022-11-10T22:20:57.274Z,6.70
2022-11-10T22:24:06.301Z,6.80
2022-11-10T22:26:59.123Z,6.77
2022-11-10T22:29:49.367Z,7.90
2022-11-10T22:32:39.919Z,8.13
2022-11-10T22:35:45.505Z,7.60
2022-11-10T22:38:40.152Z,6.90
2022-11-10T22:41:49.277Z,7.57
2022-11-10T22:44:39.813Z,8.53
2022-11-10T22:47:50.315Z,8.70
2022-11-10T22:50:40.779Z,7.97
2022-11-10T22:53:36.055Z,7.93
2022-11-10T22:56:26.765Z,8.63
2022-11-10T22:59:17.945Z,7.57
2022-11-10T23:02:08.600Z,7.23
2022-11-10T23:04:58.997Z,8.07
2022-11-10T23:07:49.417Z,7.83
2022-11-10T23:10:39.924Z,8.83
2022-11-10T23:13:30.795Z,8.40
2022-11-10T23:16:25.804Z,8.40
2022-11-10T23:19:16.210Z,7.67
2022-11-10T23:22:06.873Z,8.17
2022-11-10T23:24:57.672Z,8.17
2022-11-10T23:27:48.146Z,8.97
2022-11-10T23:30:38.485Z,8.83
2022-11-10T23:33:32.754Z,8.90
2022-11-10T23:36:25.846Z,7.90
2022-11-10T23:39:16.241Z,8.37
2022-11-10T23:42:07.109Z,8.07
2022-11-10T23:44:57.435Z,8.17
2022-11-10T23:47:47.889Z,7.93
2022-11-10T23:50:38.136Z,7.80
2022-11-10T23:53:28.963Z,7.43
2022-11-10T23:56:19.113Z,7.37
2022-11-10T23:59:09.660Z,7.87
